Meteo Giornale » Osservazioni meteo Grecia » Syros
ore: 04:50 - Osservazioni Meteo Syros
Lat. 37° 25' N Lon. 24° 56' E Alt. 73 metri s.l.m.
26 °C
Sereno
Temp. 24 Ore
24 °C
29 °C
Nord
20.3 Km/h
Dew point 16 °C
Umidità 54 %
Visibilità 20 Km
Il sole sorge alle ore 06:51
Il sole tramonta alle ore 19:48
| Data e Ora | Cielo e Fenomeni | T °C | DP °C | Um. % | Pres. hPa | Vis. km | Vento km/h | |
|---|---|---|---|---|---|---|---|---|
| Oggi h: 04:50 | Sereno | 26 | 16 | 54 | 1013 | 20 | N 20.3 | |
| Oggi h: 03:50 | Sereno | 26 | 16 | 54 | 1013 | 10 | N 16.7 | |
| Oggi h: 02:50 | Sereno | 26 | 16 | 54 | 1013 | 10 | N/NE 22.2 | |
| Oggi h: 02:20 | Sereno | 27 | 15 | 47 | 1013 | 12 | N 14.8 | |
| Oggi h: 01:50 | Sereno | 27 | 14 | 44 | 1013 | 12 | N/NO 22.2 | |
| Oggi h: 01:20 | Sereno | 27 | 15 | 47 | 1013 | 12 | N 16.7 | |
| Oggi h: 00:50 | Sereno | 27 | 14 | 44 | 1013 | 12 | N 13 | |
| Oggi h: 00:20 | Sereno | 27 | 16 | 50 | 1014 | 12 | N 22.2 | |
| Ieri h: 23:50 | Sereno | 27 | 15 | 47 | 1013 | 12 | N 25.9 | |
| Ieri h: 22:50 | Sereno | 27 | 16 | 50 | 1014 | 10 | N 24 | |
| Ieri h: 21:50 | Sereno | 28 | 12 | 37 | 1014 | 10 | N 25.9 | |
| Ieri h: 21:20 | Sereno | 28 | 10 | 32 | 1014 | 12 | N/NE 14.8 | |
| Ieri h: 20:50 | Sereno | 27 | 13 | 42 | 1013 | 10 | N 18.5 | |
| Ieri h: 19:50 | Sereno | 27 | 13 | 42 | 1013 | 10 | N 25.9 | |
| Ieri h: 18:50 | Sereno | 27 | 13 | 42 | 1013 | 10 | N 25.9 | |
| Ieri h: 17:50 | Sereno | 28 | 16 | 48 | 1013 | 10 | N 29.6 | |
| Ieri h: 16:50 | Sereno | 28 | 17 | 51 | 1013 | 10 | N 29.6 | |
| Ieri h: 15:50 | Sereno | 28 | 19 | 58 | 1013 | 10 | N 22.2 | |
| Ieri h: 14:50 | Sereno | 28 | 20 | 61 | 1013 | 10 | N 25.9 | |
| Ieri h: 13:50 | Sereno | 29 | 19 | 54 | 1013 | 10 | N 27.8 | |
| Ieri h: 12:50 | Sereno | 28 | 19 | 58 | 1013 | 10 | N 27.8 | |
| Ieri h: 11:50 | Sereno | 28 | 19 | 58 | 1014 | 10 | N 27.8 | |
| Ieri h: 10:50 | Sereno | 27 | 19 | 61 | 1014 | 10 | N 27.8 | |
| Ieri h: 09:50 | Sereno | 26 | 19 | 65 | 1013 | 10 | N/NO 31.5 | |
| Ieri h: 09:20 | Sereno | 26 | 19 | 65 | 1013 | 10 | N 24 | |
| Ieri h: 08:50 | Sereno | 26 | 19 | 65 | 1013 | 11 | N 25.9 | |
| Ieri h: 08:20 | Sereno | 26 | 18 | 61 | 1013 | 11 | N 24 | |
| Ieri h: 07:50 | Sereno | 25 | 18 | 65 | 1013 | 10 | N/NO 24 | |
| Ieri h: 07:20 | Sereno | 25 | 18 | 65 | 1013 | 10 | N 25.9 | |
| Ieri h: 06:50 | Sereno | 24 | 19 | 73 | 1012 | 10 | N 24 | |
| Ieri h: 06:20 | Sereno | 24 | 18 | 69 | 1012 | 10 | N 25.9 | |
| Ieri h: 05:50 | Sereno | 25 | 19 | 69 | 1012 | 10 | N 24 | |



